createdAt,value
2022-11-02T04:46:13.783Z,13.10
2022-11-02T04:48:40.739Z,13.10
2022-11-02T04:51:07.659Z,13.10
2022-11-02T04:53:35.366Z,13.00
2022-11-02T04:56:02.457Z,13.10
2022-11-02T04:58:32.343Z,13.00
2022-11-02T05:00:59.265Z,13.10
2022-11-02T05:03:26.399Z,13.20
2022-11-02T05:05:56.151Z,13.00
2022-11-02T05:08:23.105Z,13.10
2022-11-02T05:10:50.136Z,13.00
2022-11-02T05:13:17.082Z,13.00
2022-11-02T05:15:44.085Z,13.10
2022-11-02T05:18:16.139Z,13.10
2022-11-02T05:20:49.975Z,13.00
2022-11-02T05:23:16.947Z,13.00
2022-11-02T05:25:51.591Z,13.00
2022-11-02T05:28:18.515Z,13.00
2022-11-02T05:30:45.447Z,12.90
2022-11-02T05:33:12.465Z,12.90
2022-11-02T05:35:39.382Z,13.10
2022-11-02T05:38:06.364Z,12.90
2022-11-02T05:40:41.980Z,12.80
2022-11-02T05:43:09.389Z,12.80
2022-11-02T05:45:36.669Z,12.80
2022-11-02T05:48:06.574Z,12.80
2022-11-02T05:50:33.623Z,12.70
2022-11-02T05:53:00.673Z,12.70
2022-11-02T05:55:27.591Z,12.70
2022-11-02T05:57:55.155Z,12.70
2022-11-02T06:00:22.753Z,12.60
2022-11-02T06:02:55.142Z,12.60
2022-11-02T06:05:22.161Z,12.60
2022-11-02T06:07:49.140Z,12.60
2022-11-02T06:10:16.068Z,12.70
2022-11-02T06:12:43.069Z,12.60
2022-11-02T06:15:10.112Z,12.60
2022-11-02T06:17:37.866Z,12.60
2022-11-02T06:20:06.115Z,12.60
2022-11-02T06:22:39.872Z,12.60
2022-11-02T06:25:07.323Z,12.60
2022-11-02T06:27:34.606Z,12.60
2022-11-02T06:30:01.945Z,12.50
2022-11-02T06:32:29.056Z,12.60
2022-11-02T06:34:56.098Z,12.70
2022-11-02T06:37:23.236Z,12.50
2022-11-02T06:39:50.226Z,12.50
2022-11-02T06:42:17.212Z,12.50
2022-11-02T06:44:44.156Z,12.50
2022-11-02T06:47:11.077Z,12.50
2022-11-02T06:49:38.006Z,12.70
2022-11-02T06:52:05.039Z,12.50
2022-11-02T06:54:32.022Z,12.40
2022-11-02T06:56:58.963Z,12.40
2022-11-02T06:59:25.957Z,12.40
2022-11-02T07:01:54.304Z,12.40
2022-11-02T07:04:21.748Z,12.40
2022-11-02T07:06:48.763Z,12.40
2022-11-02T07:09:15.733Z,12.40
2022-11-02T07:11:42.717Z,12.40
2022-11-02T07:14:09.640Z,12.40
2022-11-02T07:16:36.555Z,12.50
2022-11-02T07:19:03.685Z,12.40
2022-11-02T07:21:30.691Z,12.50
2022-11-02T07:23:57.642Z,12.50
2022-11-02T07:26:24.704Z,12.60
2022-11-02T07:28:55.225Z,12.50
2022-11-02T07:31:25.305Z,12.50
2022-11-02T07:33:52.265Z,12.60
2022-11-02T07:36:19.226Z,12.60
2022-11-02T07:38:46.160Z,12.60
2022-11-02T07:41:13.277Z,12.70
2022-11-02T07:43:43.093Z,12.70
2022-11-02T07:46:11.634Z,12.80
2022-11-02T07:48:38.603Z,12.90
2022-11-02T07:51:07.103Z,13.00
2022-11-02T07:53:34.388Z,13.00
2022-11-02T07:56:01.426Z,13.00
2022-11-02T07:58:28.355Z,13.00
2022-11-02T08:00:59.723Z,13.00
2022-11-02T08:03:27.787Z,13.00
2022-11-02T08:05:55.069Z,13.10
2022-11-02T08:08:22.976Z,13.10
2022-11-02T08:10:51.042Z,13.20
2022-11-02T08:13:19.600Z,13.30
2022-11-02T08:15:53.024Z,13.30
2022-11-02T08:18:21.367Z,13.40
2022-11-02T08:20:48.673Z,13.30
2022-11-02T08:23:16.872Z,13.40
2022-11-02T08:25:45.705Z,13.20
2022-11-02T08:28:14.313Z,13.20
2022-11-02T08:30:41.662Z,13.30
2022-11-02T08:33:13.059Z,13.30
2022-11-02T08:35:40.515Z,13.40
2022-11-02T08:38:08.055Z,13.40
2022-11-02T08:40:35.728Z,13.40
2022-11-02T08:43:03.962Z,13.50
2022-11-02T08:45:53.801Z,13.60
2022-11-02T08:48:18.736Z,13.60
2022-11-02T08:50:45.696Z,13.70
2022-11-02T08:53:12.619Z,13.80
2022-11-02T08:55:39.708Z,13.90
2022-11-02T08:58:07.161Z,14.00
2022-11-02T09:00:35.052Z,14.00
2022-11-02T09:03:02.128Z,14.00
2022-11-02T09:05:30.295Z,14.00
2022-11-02T09:07:58.670Z,14.00
2022-11-02T09:10:26.309Z,14.10
2022-11-02T09:12:53.313Z,14.10
2022-11-02T09:15:20.749Z,14.10
2022-11-02T09:17:48.962Z,14.20
2022-11-02T09:20:19.533Z,14.30
2022-11-02T09:22:46.775Z,14.30
2022-11-02T09:25:14.249Z,14.40
2022-11-02T09:27:41.683Z,14.50
2022-11-02T09:30:09.488Z,14.50
2022-11-02T09:32:36.536Z,14.50
2022-11-02T09:35:04.657Z,14.60
2022-11-02T09:37:31.701Z,14.60
2022-11-02T09:39:58.715Z,14.70
2022-11-02T09:42:28.761Z,14.80
2022-11-02T09:44:58.491Z,14.80
2022-11-02T09:50:17.398Z,14.90
2022-11-02T09:52:45.905Z,14.90
2022-11-02T09:55:17.258Z,14.90
2022-11-02T09:57:46.163Z,15.00
2022-11-02T10:00:13.954Z,15.10
2022-11-02T10:03:04.073Z,15.10
2022-11-02T10:05:46.799Z,15.20
2022-11-02T10:08:19.509Z,15.20
2022-11-02T10:11:09.508Z,15.30
2022-11-02T10:13:45.471Z,15.30
2022-11-02T10:16:12.390Z,15.30
2022-11-02T10:18:40.375Z,15.40
2022-11-02T10:21:19.454Z,15.50
2022-11-02T10:23:56.136Z,15.50
2022-11-02T10:26:43.579Z,15.50
2022-11-02T10:29:18.416Z,15.50
2022-11-02T10:31:45.703Z,15.60
2022-11-02T10:34:19.586Z,15.60
2022-11-02T10:37:04.956Z,15.70
2022-11-02T10:39:51.760Z,15.80
2022-11-02T10:42:27.900Z,15.80
2022-11-02T10:44:54.808Z,15.90
2022-11-02T10:47:24.148Z,15.90
2022-11-02T10:50:12.487Z,16.00
2022-11-02T10:52:41.617Z,16.00
2022-11-02T10:55:13.595Z,16.10
2022-11-02T10:57:40.628Z,16.10
2022-11-02T11:00:25.745Z,16.10
2022-11-02T11:03:02.887Z,16.20
2022-11-02T11:05:29.924Z,16.20
2022-11-02T11:07:57.409Z,16.30
2022-11-02T11:10:24.726Z,16.30
2022-11-02T11:12:51.660Z,16.30
2022-11-02T11:20:59.882Z,16.40
2022-11-02T11:23:26.864Z,16.40
2022-11-02T11:26:01.110Z,16.50
2022-11-02T11:28:28.122Z,16.50
2022-11-02T11:31:24.330Z,16.60
2022-11-02T11:33:55.496Z,16.60
2022-11-02T11:38:59.175Z,16.60
2022-11-02T11:41:26.410Z,16.70
2022-11-02T11:43:53.722Z,16.60
2022-11-02T11:46:20.969Z,16.70
2022-11-02T11:48:50.203Z,16.70
2022-11-02T11:51:24.400Z,16.70
2022-11-02T11:54:11.188Z,16.70
2022-11-02T11:56:38.124Z,16.70
2022-11-02T11:59:05.060Z,16.80
2022-11-02T12:01:38.571Z,16.80
2022-11-02T12:04:05.569Z,16.80
2022-11-02T12:06:32.491Z,16.80
2022-11-02T12:09:05.307Z,16.80
2022-11-02T12:11:50.410Z,16.80
2022-11-02T12:14:25.564Z,16.90
2022-11-02T12:17:20.676Z,16.90
2022-11-02T12:19:50.376Z,16.90
2022-11-02T12:22:43.534Z,16.90
2022-11-02T12:25:19.696Z,16.90
2022-11-02T12:27:52.506Z,17.00
2022-11-02T12:30:20.503Z,17.00
2022-11-02T12:32:59.429Z,17.00
2022-11-02T12:35:32.115Z,17.00
2022-11-02T12:37:59.116Z,17.00
2022-11-02T12:43:04.506Z,17.00
2022-11-02T12:45:34.826Z,17.00
2022-11-02T12:48:05.406Z,17.00
2022-11-02T12:50:32.701Z,17.00
2022-11-02T12:53:00.184Z,17.00
2022-11-02T12:55:33.013Z,17.00
2022-11-02T12:58:07.851Z,17.00
2022-11-02T13:00:40.973Z,17.00
2022-11-02T13:03:13.818Z,17.10
2022-11-02T13:05:48.481Z,17.10
2022-11-02T13:08:17.813Z,17.10
2022-11-02T13:10:53.516Z,17.10
2022-11-02T13:13:32.393Z,17.10
2022-11-02T13:16:00.648Z,17.10
2022-11-02T13:18:30.532Z,17.20
2022-11-02T13:20:58.868Z,17.10
2022-11-02T13:23:40.660Z,17.20
2022-11-02T13:26:11.733Z,17.20
2022-11-02T13:28:43.402Z,17.20
2022-11-02T13:31:20.923Z,17.20
2022-11-02T13:33:49.543Z,17.20
2022-11-02T13:36:16.567Z,17.20
2022-11-02T13:38:49.337Z,17.20
2022-11-02T13:41:26.532Z,17.20
2022-11-02T13:44:12.093Z,17.20
2022-11-02T13:46:47.967Z,17.20
2022-11-02T13:49:16.973Z,17.20
2022-11-02T13:51:45.467Z,17.30
2022-11-02T13:54:18.289Z,17.30
2022-11-02T13:56:45.816Z,17.30
2022-11-02T13:59:33.272Z,17.30
2022-11-02T14:02:01.758Z,17.30
2022-11-02T14:04:30.800Z,17.30
2022-11-02T14:06:59.938Z,17.30
2022-11-02T14:09:38.698Z,17.30
2022-11-02T14:12:11.623Z,17.30
2022-11-02T14:14:38.710Z,17.30
2022-11-02T14:17:16.468Z,17.20
2022-11-02T14:19:46.272Z,17.20
2022-11-02T14:22:14.420Z,17.30
2022-11-02T14:24:41.341Z,17.30
2022-11-02T14:27:14.697Z,17.30
2022-11-02T14:29:47.623Z,17.30
2022-11-02T14:32:17.462Z,17.30
2022-11-02T14:34:51.272Z,17.30
2022-11-02T14:37:18.286Z,17.30
2022-11-02T14:39:48.121Z,17.30
2022-11-02T14:42:21.394Z,17.30
2022-11-02T14:45:07.177Z,17.30
2022-11-02T14:47:35.860Z,17.20
2022-11-02T14:50:14.345Z,17.20
2022-11-02T14:52:43.249Z,17.20
2022-11-02T14:55:19.381Z,17.20
2022-11-02T14:58:00.563Z,17.20
2022-11-02T15:00:33.957Z,17.10
2022-11-02T15:03:01.456Z,17.10
2022-11-02T15:05:28.391Z,17.10
2022-11-02T15:08:02.152Z,17.10
2022-11-02T15:10:32.060Z,17.00
2022-11-02T15:13:17.438Z,17.00
2022-11-02T15:15:50.279Z,16.90
2022-11-02T15:18:22.750Z,16.90
2022-11-02T15:21:09.994Z,16.80
2022-11-02T15:26:26.749Z,16.70
2022-11-02T15:28:55.623Z,16.70
2022-11-02T15:31:26.280Z,16.70
2022-11-02T15:33:55.131Z,16.60
2022-11-02T15:36:30.419Z,16.60
2022-11-02T15:38:57.619Z,16.50
2022-11-02T15:41:47.708Z,16.50
2022-11-02T15:44:14.640Z,16.50
2022-11-02T15:46:41.669Z,16.50
2022-11-02T15:49:27.474Z,16.50
2022-11-02T15:51:59.886Z,16.40
2022-11-02T15:54:46.329Z,16.30
2022-11-02T15:57:13.442Z,16.30
2022-11-02T15:59:43.164Z,16.20
2022-11-02T16:02:31.629Z,16.20
2022-11-02T16:05:02.477Z,16.20
2022-11-02T16:07:38.242Z,16.10
2022-11-02T16:10:13.155Z,16.10
2022-11-02T16:12:40.113Z,16.00
2022-11-02T16:15:11.688Z,15.90
2022-11-02T16:17:38.946Z,15.90
2022-11-02T16:20:10.298Z,15.90
2022-11-02T16:22:37.527Z,15.80
2022-11-02T16:25:12.201Z,15.80
2022-11-02T16:27:39.535Z,15.70
2022-11-02T16:30:07.451Z,15.60
2022-11-02T16:32:34.649Z,15.60
2022-11-02T16:35:02.232Z,15.60
2022-11-02T16:37:29.228Z,15.50
2022-11-02T16:39:56.743Z,15.50
2022-11-02T16:42:24.153Z,15.40
2022-11-02T16:45:13.852Z,15.30
2022-11-02T16:47:41.575Z,15.30
2022-11-02T16:50:19.051Z,15.30
2022-11-02T16:52:52.993Z,15.30
2022-11-02T16:55:34.795Z,15.20
2022-11-02T16:58:02.632Z,15.10
2022-11-02T17:00:29.847Z,15.10
2022-11-02T17:02:56.971Z,15.00
2022-11-02T17:05:25.819Z,15.00
2022-11-02T17:07:55.914Z,15.00
2022-11-02T17:10:26.856Z,14.90
2022-11-02T17:12:54.369Z,14.90
2022-11-02T17:15:25.398Z,14.90
2022-11-02T17:18:07.760Z,14.80
2022-11-02T17:20:36.127Z,14.80
2022-11-02T17:23:10.468Z,14.70
2022-11-02T17:25:38.715Z,14.60
2022-11-02T17:28:24.266Z,14.70
2022-11-02T17:30:51.915Z,14.60
2022-11-02T17:33:18.842Z,14.50
2022-11-02T17:35:46.951Z,14.50
2022-11-02T17:38:14.008Z,14.40
2022-11-02T17:40:41.695Z,14.40
2022-11-02T17:43:08.749Z,14.30
2022-11-02T17:45:39.415Z,14.30
2022-11-02T17:48:07.562Z,14.30
2022-11-02T17:50:35.565Z,14.30
2022-11-02T17:53:03.240Z,14.40
2022-11-02T17:55:31.307Z,14.30
2022-11-02T17:57:58.720Z,14.30
2022-11-02T18:00:27.128Z,14.20
2022-11-02T18:02:55.484Z,14.10
2022-11-02T18:05:25.246Z,14.10
2022-11-02T18:07:52.618Z,14.00
2022-11-02T18:10:21.292Z,14.10
2022-11-02T18:12:48.303Z,14.00
2022-11-02T18:15:16.454Z,14.00
2022-11-02T18:17:43.558Z,13.90
2022-11-02T18:20:11.345Z,13.90
2022-11-02T18:22:38.459Z,13.80
2022-11-02T18:25:06.268Z,13.70
2022-11-02T18:27:33.251Z,13.70
2022-11-02T18:30:00.265Z,13.60
2022-11-02T18:32:27.348Z,13.60
2022-11-02T18:34:54.299Z,13.70
2022-11-02T18:37:22.863Z,13.60
2022-11-02T18:39:49.793Z,13.60
2022-11-02T18:42:16.746Z,13.50
2022-11-02T18:44:43.698Z,13.50
2022-11-02T18:47:10.672Z,13.50
2022-11-02T18:49:37.675Z,13.50
2022-11-02T18:52:04.712Z,13.40
2022-11-02T18:54:31.711Z,13.50
2022-11-02T18:56:58.659Z,13.50
2022-11-02T18:59:25.731Z,13.40
2022-11-02T19:01:53.806Z,13.40
2022-11-02T19:04:20.828Z,13.40
2022-11-02T19:07:06.199Z,13.40
2022-11-02T19:09:33.508Z,13.30
2022-11-02T19:12:00.466Z,13.30
2022-11-02T19:14:28.219Z,13.30
2022-11-02T19:16:55.193Z,13.30
2022-11-02T19:19:22.154Z,13.20
2022-11-02T19:21:49.479Z,13.10
2022-11-02T19:24:16.415Z,13.00
2022-11-02T19:26:43.384Z,13.00
2022-11-02T19:29:10.380Z,13.00
2022-11-02T19:31:37.361Z,13.10
2022-11-02T19:34:04.411Z,13.00
2022-11-02T19:36:31.835Z,13.10
2022-11-02T19:39:00.103Z,13.10
2022-11-02T19:41:27.159Z,13.00
2022-11-02T19:43:54.128Z,13.00
2022-11-02T19:46:21.903Z,13.10
2022-11-02T19:48:49.196Z,13.10
2022-11-02T19:51:20.673Z,13.00
2022-11-02T19:53:51.850Z,13.00
2022-11-02T19:56:19.524Z,13.00
2022-11-02T19:58:47.469Z,13.00
2022-11-02T20:01:21.686Z,13.00
2022-11-02T20:03:49.304Z,13.00
2022-11-02T20:06:17.833Z,12.90
2022-11-02T20:08:45.035Z,12.90
2022-11-02T20:11:13.136Z,12.90
2022-11-02T20:13:43.792Z,12.80
2022-11-02T20:16:12.283Z,12.80
2022-11-02T20:18:40.199Z,12.70
2022-11-02T20:21:09.248Z,12.70
2022-11-02T20:23:36.260Z,12.70
2022-11-02T20:26:04.294Z,12.80
2022-11-02T20:28:31.460Z,12.60
2022-11-02T20:30:58.403Z,12.60
2022-11-02T20:33:25.439Z,12.50
2022-11-02T20:35:52.409Z,12.50
2022-11-02T20:38:19.388Z,12.50
2022-11-02T20:40:46.415Z,12.50
2022-11-02T20:43:13.405Z,12.50
2022-11-02T20:45:40.347Z,12.50
2022-11-02T20:48:07.643Z,12.50
2022-11-02T20:50:35.361Z,12.50
2022-11-02T20:53:02.532Z,12.50
2022-11-02T20:55:29.664Z,12.40
2022-11-02T20:57:56.714Z,12.30
2022-11-02T21:00:25.485Z,12.30
2022-11-02T21:02:52.464Z,12.30
2022-11-02T21:05:19.700Z,12.20
2022-11-02T21:07:50.017Z,12.20
2022-11-02T21:10:17.145Z,12.20
2022-11-02T21:13:02.691Z,12.20
2022-11-02T21:15:30.064Z,12.20
2022-11-02T21:17:57.104Z,12.20
2022-11-02T21:20:39.440Z,12.30
2022-11-02T21:23:06.705Z,12.40
2022-11-02T21:25:34.296Z,12.40
2022-11-02T21:28:01.259Z,12.40
2022-11-02T21:30:30.814Z,12.60
2022-11-02T21:32:57.776Z,12.40
2022-11-02T21:35:24.761Z,12.30
2022-11-02T21:37:55.227Z,12.40
2022-11-02T21:40:22.205Z,12.30
2022-11-02T21:42:49.193Z,12.30
2022-11-02T21:45:18.119Z,12.30
2022-11-02T21:47:45.337Z,12.20
2022-11-02T21:50:12.701Z,12.10
2022-11-02T21:52:42.455Z,12.00
2022-11-02T21:55:12.154Z,12.30
2022-11-02T21:57:39.079Z,12.10
2022-11-02T22:00:06.348Z,12.10
2022-11-02T22:02:33.587Z,12.10
2022-11-02T22:05:00.600Z,12.00
2022-11-02T22:07:27.587Z,11.90
2022-11-02T22:09:54.784Z,11.90
2022-11-02T22:12:40.305Z,11.90
2022-11-02T22:15:07.676Z,11.80
2022-11-02T22:17:49.095Z,11.80
2022-11-02T22:20:16.823Z,11.80
2022-11-02T22:22:43.753Z,11.90
2022-11-02T22:25:10.678Z,11.90
2022-11-02T22:27:37.658Z,11.90
2022-11-02T22:30:04.919Z,11.90
2022-11-02T22:32:31.835Z,11.90
2022-11-02T22:34:58.772Z,11.90
2022-11-02T22:37:44.176Z,11.80
2022-11-02T22:40:11.112Z,11.80
2022-11-02T22:42:41.389Z,11.80
2022-11-02T22:45:10.139Z,11.70
2022-11-02T22:47:37.085Z,11.60
2022-11-02T22:50:04.237Z,11.50
2022-11-02T22:52:31.353Z,11.50
2022-11-02T22:54:58.277Z,11.50
2022-11-02T22:57:25.721Z,11.60
2022-11-02T22:59:52.645Z,11.60
2022-11-02T23:02:19.634Z,11.70
2022-11-02T23:04:46.625Z,11.70
2022-11-02T23:07:13.562Z,11.60
2022-11-02T23:09:40.487Z,11.60
2022-11-02T23:12:07.446Z,11.70
2022-11-02T23:14:34.354Z,11.70
2022-11-02T23:17:01.293Z,11.70
2022-11-02T23:19:31.584Z,11.70
2022-11-02T23:22:21.302Z,11.70
2022-11-02T23:25:08.148Z,11.60
2022-11-02T23:27:58.703Z,11.60
2022-11-02T23:30:45.775Z,11.60
2022-11-02T23:33:12.799Z,11.60
2022-11-02T23:36:18.026Z,11.60
2022-11-02T23:39:04.584Z,11.70
2022-11-02T23:41:32.116Z,11.70
2022-11-02T23:44:12.143Z,11.60
2022-11-02T23:46:40.463Z,11.60
2022-11-02T23:49:07.555Z,11.60
2022-11-02T23:51:53.029Z,11.60
2022-11-02T23:54:38.926Z,11.60
2022-11-02T23:57:05.884Z,11.50
2022-11-02T23:59:32.903Z,11.60
